sensor_id;sensor_type;location;lat;lon;timestamp;P1;durP1;ratioP1;P2;durP2;ratioP2
21412;SDS011;10867;45.084;5.732;2022-11-03T01:11:57;10.65;;;8.43;;
21412;SDS011;10867;45.084;5.732;2022-11-03T01:58:15;10.15;;;8.75;;
21412;SDS011;10867;45.084;5.732;2022-11-03T02:14:02;11.00;;;9.07;;
21412;SDS011;10867;45.084;5.732;2022-11-03T02:17:18;10.50;;;9.50;;
21412;SDS011;10867;45.084;5.732;2022-11-03T02:27:15;8.73;;;7.38;;
21412;SDS011;10867;45.084;5.732;2022-11-03T02:29:46;8.52;;;7.60;;
21412;SDS011;10867;45.084;5.732;2022-11-03T02:32:41;8.93;;;7.78;;
21412;SDS011;10867;45.084;5.732;2022-11-03T02:35:22;12.63;;;8.10;;
21412;SDS011;10867;45.084;5.732;2022-11-03T02:44:19;7.70;;;6.90;;
21412;SDS011;10867;45.084;5.732;2022-11-03T02:47:13;9.45;;;7.22;;
21412;SDS011;10867;45.084;5.732;2022-11-03T02:50:03;7.13;;;6.43;;
21412;SDS011;10867;45.084;5.732;2022-11-03T02:52:47;7.80;;;7.00;;
21412;SDS011;10867;45.084;5.732;2022-11-03T02:58:34;10.25;;;9.25;;
21412;SDS011;10867;45.084;5.732;2022-11-03T03:01:10;8.80;;;7.93;;
21412;SDS011;10867;45.084;5.732;2022-11-03T03:03:41;11.25;;;8.90;;
21412;SDS011;10867;45.084;5.732;2022-11-03T03:06:14;11.18;;;8.43;;
21412;SDS011;10867;45.084;5.732;2022-11-03T03:08:43;9.73;;;8.73;;
21412;SDS011;10867;45.084;5.732;2022-11-03T03:11:11;8.98;;;8.15;;
21412;SDS011;10867;45.084;5.732;2022-11-03T03:14:04;9.00;;;7.30;;
21412;SDS011;10867;45.084;5.732;2022-11-03T03:16:31;8.75;;;7.95;;
21412;SDS011;10867;45.084;5.732;2022-11-03T03:19:02;11.18;;;8.77;;
21412;SDS011;10867;45.084;5.732;2022-11-03T03:21:48;11.13;;;9.13;;
21412;SDS011;10867;45.084;5.732;2022-11-03T03:24:39;11.02;;;9.38;;
21412;SDS011;10867;45.084;5.732;2022-11-03T03:27:11;17.30;;;12.00;;
21412;SDS011;10867;45.084;5.732;2022-11-03T03:29:49;13.63;;;12.15;;
21412;SDS011;10867;45.084;5.732;2022-11-03T03:32:40;13.57;;;11.00;;
21412;SDS011;10867;45.084;5.732;2022-11-03T03:35:12;10.90;;;9.60;;
21412;SDS011;10867;45.084;5.732;2022-11-03T03:38:08;10.35;;;9.27;;
21412;SDS011;10867;45.084;5.732;2022-11-03T03:40:45;6.90;;;6.30;;
21412;SDS011;10867;45.084;5.732;2022-11-03T03:43:23;7.40;;;6.38;;
21412;SDS011;10867;45.084;5.732;2022-11-03T03:45:51;6.10;;;5.50;;
21412;SDS011;10867;45.084;5.732;2022-11-03T03:48:22;7.55;;;5.78;;
21412;SDS011;10867;45.084;5.732;2022-11-03T03:51:09;7.00;;;5.90;;
21412;SDS011;10867;45.084;5.732;2022-11-03T03:53:48;6.72;;;5.82;;
21412;SDS011;10867;45.084;5.732;2022-11-03T03:56:49;8.48;;;7.15;;
21412;SDS011;10867;45.084;5.732;2022-11-03T03:59:48;8.40;;;7.53;;
21412;SDS011;10867;45.084;5.732;2022-11-03T04:02:39;9.55;;;7.30;;
21412;SDS011;10867;45.084;5.732;2022-11-03T04:05:15;7.63;;;6.93;;
21412;SDS011;10867;45.084;5.732;2022-11-03T04:07:53;7.10;;;6.40;;
21412;SDS011;10867;45.084;5.732;2022-11-03T04:10:29;7.05;;;6.22;;
21412;SDS011;10867;45.084;5.732;2022-11-03T04:13:41;9.07;;;5.70;;
21412;SDS011;10867;45.084;5.732;2022-11-03T04:16:28;6.15;;;5.38;;
21412;SDS011;10867;45.084;5.732;2022-11-03T04:19:15;10.10;;;6.07;;
21412;SDS011;10867;45.084;5.732;2022-11-03T04:22:03;9.50;;;6.65;;
21412;SDS011;10867;45.084;5.732;2022-11-03T04:24:44;8.02;;;7.00;;
21412;SDS011;10867;45.084;5.732;2022-11-03T04:27:35;7.60;;;6.80;;
21412;SDS011;10867;45.084;5.732;2022-11-03T04:32:47;9.90;;;7.05;;
21412;SDS011;10867;45.084;5.732;2022-11-03T04:35:21;8.85;;;7.50;;
21412;SDS011;10867;45.084;5.732;2022-11-03T04:37:52;8.20;;;7.00;;
21412;SDS011;10867;45.084;5.732;2022-11-03T04:40:29;7.35;;;6.65;;
21412;SDS011;10867;45.084;5.732;2022-11-03T04:43:05;8.27;;;7.00;;
21412;SDS011;10867;45.084;5.732;2022-11-03T04:45:43;8.68;;;6.20;;
21412;SDS011;10867;45.084;5.732;2022-11-03T04:48:18;7.50;;;6.35;;
21412;SDS011;10867;45.084;5.732;2022-11-03T04:51:10;8.15;;;5.93;;
21412;SDS011;10867;45.084;5.732;2022-11-03T04:54:11;7.07;;;6.38;;
21412;SDS011;10867;45.084;5.732;2022-11-03T04:56:53;7.60;;;5.97;;
21412;SDS011;10867;45.084;5.732;2022-11-03T04:59:36;8.90;;;6.10;;
21412;SDS011;10867;45.084;5.732;2022-11-03T05:02:28;7.25;;;6.20;;
21412;SDS011;10867;45.084;5.732;2022-11-03T05:05:00;5.82;;;5.22;;
21412;SDS011;10867;45.084;5.732;2022-11-03T05:07:59;6.65;;;5.90;;
21412;SDS011;10867;45.084;5.732;2022-11-03T05:14:00;7.53;;;5.60;;
21412;SDS011;10867;45.084;5.732;2022-11-03T05:16:36;8.57;;;5.90;;
21412;SDS011;10867;45.084;5.732;2022-11-03T05:22:16;5.75;;;5.25;;
21412;SDS011;10867;45.084;5.732;2022-11-03T05:24:54;6.35;;;5.15;;
21412;SDS011;10867;45.084;5.732;2022-11-03T05:27:20;6.90;;;5.38;;
21412;SDS011;10867;45.084;5.732;2022-11-03T05:29:49;6.40;;;5.80;;
21412;SDS011;10867;45.084;5.732;2022-11-03T05:32:27;9.25;;;6.80;;
21412;SDS011;10867;45.084;5.732;2022-11-03T05:42:00;10.13;;;8.70;;
21412;SDS011;10867;45.084;5.732;2022-11-03T05:44:33;10.13;;;8.70;;
21412;SDS011;10867;45.084;5.732;2022-11-03T05:50:29;8.50;;;7.15;;
21412;SDS011;10867;45.084;5.732;2022-11-03T05:57:25;11.30;;;10.10;;
21412;SDS011;10867;45.084;5.732;2022-11-03T06:19:58;14.40;;;10.77;;
21412;SDS011;10867;45.084;5.732;2022-11-03T06:22:26;13.85;;;10.52;;
21412;SDS011;10867;45.084;5.732;2022-11-03T06:56:38;18.30;;;13.00;;
21412;SDS011;10867;45.084;5.732;2022-11-03T07:05:39;10.90;;;7.93;;
21412;SDS011;10867;45.084;5.732;2022-11-03T07:08:13;12.68;;;8.23;;
21412;SDS011;10867;45.084;5.732;2022-11-03T07:11:03;14.77;;;9.90;;
21412;SDS011;10867;45.084;5.732;2022-11-03T07:20:27;7.93;;;6.53;;
21412;SDS011;10867;45.084;5.732;2022-11-03T07:22:55;7.38;;;6.60;;
21412;SDS011;10867;45.084;5.732;2022-11-03T08:18:26;6.57;;;5.00;;
21412;SDS011;10867;45.084;5.732;2022-11-03T08:39:04;11.57;;;8.10;;
21412;SDS011;10867;45.084;5.732;2022-11-03T08:54:30;10.70;;;6.60;;
21412;SDS011;10867;45.084;5.732;2022-11-03T09:00:35;11.50;;;5.88;;
21412;SDS011;10867;45.084;5.732;2022-11-03T09:03:22;12.68;;;6.65;;
21412;SDS011;10867;45.084;5.732;2022-11-03T09:09:19;14.35;;;7.47;;
21412;SDS011;10867;45.084;5.732;2022-11-03T17:40:27;8.93;;;7.65;;
21412;SDS011;10867;45.084;5.732;2022-11-03T22:42:22;2.85;;;1.30;;
